sensor_id;sensor_type;location;lat;lon;timestamp;P1;durP1;ratioP1;P2;durP2;ratioP2
928;SDS011;451;47.988;7.842;2023-02-15T00:08:14;33.70;;;22.37;;
928;SDS011;451;47.988;7.842;2023-02-15T00:17:19;32.20;;;21.67;;
928;SDS011;451;47.988;7.842;2023-02-15T00:26:21;35.47;;;25.53;;
928;SDS011;451;47.988;7.842;2023-02-15T00:35:26;31.60;;;21.57;;
928;SDS011;451;47.988;7.842;2023-02-15T00:44:29;30.40;;;21.60;;
928;SDS011;451;47.988;7.842;2023-02-15T00:53:33;30.07;;;21.60;;
928;SDS011;451;47.988;7.842;2023-02-15T01:02:36;27.00;;;21.00;;
928;SDS011;451;47.988;7.842;2023-02-15T01:11:41;33.93;;;23.40;;
928;SDS011;451;47.988;7.842;2023-02-15T01:20:44;25.87;;;20.00;;
928;SDS011;451;47.988;7.842;2023-02-15T01:29:48;27.57;;;21.40;;
928;SDS011;451;47.988;7.842;2023-02-15T01:38:51;31.43;;;21.70;;
928;SDS011;451;47.988;7.842;2023-02-15T01:47:56;34.73;;;23.40;;
928;SDS011;451;47.988;7.842;2023-02-15T01:57:05;40.13;;;23.87;;
928;SDS011;451;47.988;7.842;2023-02-15T02:06:13;36.47;;;24.10;;
928;SDS011;451;47.988;7.842;2023-02-15T02:15:16;35.97;;;23.63;;
928;SDS011;451;47.988;7.842;2023-02-15T02:24:27;38.30;;;23.83;;
928;SDS011;451;47.988;7.842;2023-02-15T02:33:51;49.17;;;26.10;;
928;SDS011;451;47.988;7.842;2023-02-15T02:43:00;112.70;;;29.23;;
928;SDS011;451;47.988;7.842;2023-02-15T03:01:44;43.23;;;25.40;;
928;SDS011;451;47.988;7.842;2023-02-15T03:10:53;34.10;;;22.03;;
928;SDS011;451;47.988;7.842;2023-02-15T03:20:00;36.83;;;20.90;;
928;SDS011;451;47.988;7.842;2023-02-15T03:29:09;24.47;;;17.50;;
928;SDS011;451;47.988;7.842;2023-02-15T03:38:15;70.47;;;24.10;;
928;SDS011;451;47.988;7.842;2023-02-15T03:47:25;58.93;;;23.17;;
928;SDS011;451;47.988;7.842;2023-02-15T03:56:31;88.30;;;24.80;;
928;SDS011;451;47.988;7.842;2023-02-15T04:05:38;68.03;;;22.60;;
928;SDS011;451;47.988;7.842;2023-02-15T04:14:41;35.13;;;19.20;;
928;SDS011;451;47.988;7.842;2023-02-15T04:24:03;46.80;;;21.33;;
928;SDS011;451;47.988;7.842;2023-02-15T04:33:25;47.27;;;20.20;;
928;SDS011;451;47.988;7.842;2023-02-15T04:42:29;95.23;;;24.83;;
928;SDS011;451;47.988;7.842;2023-02-15T04:51:32;45.73;;;20.70;;
928;SDS011;451;47.988;7.842;2023-02-15T05:00:36;32.67;;;19.47;;
928;SDS011;451;47.988;7.842;2023-02-15T05:09:39;54.70;;;22.43;;
928;SDS011;451;47.988;7.842;2023-02-15T05:18:43;39.83;;;21.03;;
928;SDS011;451;47.988;7.842;2023-02-15T05:27:46;51.07;;;23.80;;
928;SDS011;451;47.988;7.842;2023-02-15T05:37:08;54.63;;;21.43;;
928;SDS011;451;47.988;7.842;2023-02-15T05:46:11;39.70;;;21.73;;
928;SDS011;451;47.988;7.842;2023-02-15T05:55:16;27.10;;;18.07;;
928;SDS011;451;47.988;7.842;2023-02-15T06:04:20;26.77;;;18.10;;
928;SDS011;451;47.988;7.842;2023-02-15T06:13:24;26.77;;;17.43;;
928;SDS011;451;47.988;7.842;2023-02-15T06:22:27;26.70;;;16.27;;
928;SDS011;451;47.988;7.842;2023-02-15T06:31:31;25.33;;;18.43;;
928;SDS011;451;47.988;7.842;2023-02-15T06:40:34;27.97;;;17.20;;
928;SDS011;451;47.988;7.842;2023-02-15T06:49:42;24.07;;;16.53;;
928;SDS011;451;47.988;7.842;2023-02-15T06:58:49;31.40;;;20.70;;
928;SDS011;451;47.988;7.842;2023-02-15T07:07:55;29.07;;;20.30;;
928;SDS011;451;47.988;7.842;2023-02-15T07:16:59;35.57;;;21.20;;
928;SDS011;451;47.988;7.842;2023-02-15T07:26:03;33.50;;;21.10;;
928;SDS011;451;47.988;7.842;2023-02-15T07:35:07;26.77;;;19.27;;
928;SDS011;451;47.988;7.842;2023-02-15T07:44:12;34.80;;;20.90;;
928;SDS011;451;47.988;7.842;2023-02-15T07:53:16;31.50;;;20.97;;
928;SDS011;451;47.988;7.842;2023-02-15T08:02:20;27.97;;;21.00;;
928;SDS011;451;47.988;7.842;2023-02-15T08:11:24;35.67;;;22.20;;
928;SDS011;451;47.988;7.842;2023-02-15T08:20:31;35.80;;;22.70;;
928;SDS011;451;47.988;7.842;2023-02-15T08:29:36;39.90;;;22.10;;
928;SDS011;451;47.988;7.842;2023-02-15T08:38:42;34.47;;;22.10;;
928;SDS011;451;47.988;7.842;2023-02-15T08:47:46;40.87;;;21.77;;
928;SDS011;451;47.988;7.842;2023-02-15T08:56:51;35.30;;;21.23;;
928;SDS011;451;47.988;7.842;2023-02-15T09:05:58;33.90;;;21.00;;
928;SDS011;451;47.988;7.842;2023-02-15T09:15:03;35.63;;;22.70;;
928;SDS011;451;47.988;7.842;2023-02-15T09:24:07;51.17;;;24.10;;
928;SDS011;451;47.988;7.842;2023-02-15T09:33:13;31.63;;;22.90;;
928;SDS011;451;47.988;7.842;2023-02-15T09:42:26;34.70;;;23.83;;
928;SDS011;451;47.988;7.842;2023-02-15T09:51:49;36.23;;;22.70;;
928;SDS011;451;47.988;7.842;2023-02-15T10:01:05;32.60;;;22.80;;
928;SDS011;451;47.988;7.842;2023-02-15T10:10:19;34.20;;;23.30;;
928;SDS011;451;47.988;7.842;2023-02-15T10:19:29;35.53;;;22.50;;
928;SDS011;451;47.988;7.842;2023-02-15T10:28:45;32.67;;;22.90;;
928;SDS011;451;47.988;7.842;2023-02-15T10:37:53;34.43;;;26.23;;
928;SDS011;451;47.988;7.842;2023-02-15T10:47:13;33.53;;;23.23;;
928;SDS011;451;47.988;7.842;2023-02-15T10:56:28;36.03;;;26.40;;
928;SDS011;451;47.988;7.842;2023-02-15T11:05:41;33.03;;;22.87;;
928;SDS011;451;47.988;7.842;2023-02-15T11:14:51;33.00;;;26.50;;
928;SDS011;451;47.988;7.842;2023-02-15T11:24:01;33.57;;;24.60;;
928;SDS011;451;47.988;7.842;2023-02-15T11:33:14;32.13;;;22.57;;
928;SDS011;451;47.988;7.842;2023-02-15T11:42:25;29.00;;;21.80;;
928;SDS011;451;47.988;7.842;2023-02-15T11:51:30;29.37;;;22.27;;
928;SDS011;451;47.988;7.842;2023-02-15T12:00:35;32.10;;;22.40;;
928;SDS011;451;47.988;7.842;2023-02-15T12:09:46;29.67;;;21.87;;
928;SDS011;451;47.988;7.842;2023-02-15T12:18:55;30.37;;;22.20;;
928;SDS011;451;47.988;7.842;2023-02-15T12:28:00;27.47;;;21.27;;
928;SDS011;451;47.988;7.842;2023-02-15T12:37:09;31.07;;;21.50;;
928;SDS011;451;47.988;7.842;2023-02-15T12:46:21;27.17;;;21.10;;
928;SDS011;451;47.988;7.842;2023-02-15T12:55:27;30.93;;;21.60;;
928;SDS011;451;47.988;7.842;2023-02-15T13:04:31;25.13;;;22.20;;
928;SDS011;451;47.988;7.842;2023-02-15T13:13:45;26.47;;;22.13;;
928;SDS011;451;47.988;7.842;2023-02-15T13:22:56;27.03;;;22.27;;
928;SDS011;451;47.988;7.842;2023-02-15T13:32:05;24.40;;;20.17;;
928;SDS011;451;47.988;7.842;2023-02-15T13:41:15;28.17;;;21.93;;
928;SDS011;451;47.988;7.842;2023-02-15T13:50:34;27.00;;;21.30;;
928;SDS011;451;47.988;7.842;2023-02-15T13:59:52;29.73;;;20.80;;
928;SDS011;451;47.988;7.842;2023-02-15T14:09:19;29.23;;;22.47;;
928;SDS011;451;47.988;7.842;2023-02-15T14:18:33;26.90;;;21.70;;
928;SDS011;451;47.988;7.842;2023-02-15T14:27:45;28.50;;;22.60;;
928;SDS011;451;47.988;7.842;2023-02-15T14:36:58;27.43;;;22.27;;
928;SDS011;451;47.988;7.842;2023-02-15T14:46:07;27.97;;;23.63;;
928;SDS011;451;47.988;7.842;2023-02-15T14:55:14;29.10;;;22.53;;
928;SDS011;451;47.988;7.842;2023-02-15T15:04:40;28.40;;;22.53;;
928;SDS011;451;47.988;7.842;2023-02-15T15:13:52;28.40;;;22.80;;
928;SDS011;451;47.988;7.842;2023-02-15T15:32:34;24.40;;;20.07;;
928;SDS011;451;47.988;7.842;2023-02-15T15:41:39;26.80;;;20.50;;
928;SDS011;451;47.988;7.842;2023-02-15T15:50:45;28.10;;;20.87;;
928;SDS011;451;47.988;7.842;2023-02-15T15:59:52;25.77;;;21.07;;
928;SDS011;451;47.988;7.842;2023-02-15T16:08:58;27.30;;;21.10;;
928;SDS011;451;47.988;7.842;2023-02-15T16:18:13;33.10;;;21.97;;
928;SDS011;451;47.988;7.842;2023-02-15T16:27:31;29.87;;;22.37;;
928;SDS011;451;47.988;7.842;2023-02-15T16:36:37;29.60;;;22.50;;
928;SDS011;451;47.988;7.842;2023-02-15T16:45:41;32.10;;;21.90;;
928;SDS011;451;47.988;7.842;2023-02-15T16:54:45;32.40;;;22.60;;
928;SDS011;451;47.988;7.842;2023-02-15T17:13:15;36.00;;;23.90;;
928;SDS011;451;47.988;7.842;2023-02-15T17:22:21;34.97;;;23.57;;
928;SDS011;451;47.988;7.842;2023-02-15T17:31:26;32.47;;;22.97;;
928;SDS011;451;47.988;7.842;2023-02-15T17:40:34;27.30;;;22.70;;
928;SDS011;451;47.988;7.842;2023-02-15T17:49:38;30.87;;;22.60;;
928;SDS011;451;47.988;7.842;2023-02-15T17:58:42;30.00;;;23.13;;
928;SDS011;451;47.988;7.842;2023-02-15T18:07:45;36.73;;;25.10;;
928;SDS011;451;47.988;7.842;2023-02-15T18:17:10;42.10;;;28.37;;
928;SDS011;451;47.988;7.842;2023-02-15T18:26:33;30.67;;;22.87;;
928;SDS011;451;47.988;7.842;2023-02-15T18:35:39;30.63;;;21.53;;
928;SDS011;451;47.988;7.842;2023-02-15T18:44:51;31.03;;;22.00;;
928;SDS011;451;47.988;7.842;2023-02-15T18:53:59;19.27;;;16.00;;
928;SDS011;451;47.988;7.842;2023-02-15T19:03:03;17.33;;;13.50;;
928;SDS011;451;47.988;7.842;2023-02-15T19:12:15;16.87;;;13.90;;
928;SDS011;451;47.988;7.842;2023-02-15T19:21:20;21.23;;;17.60;;
928;SDS011;451;47.988;7.842;2023-02-15T19:30:25;26.13;;;14.50;;
928;SDS011;451;47.988;7.842;2023-02-15T19:39:31;32.53;;;20.03;;
928;SDS011;451;47.988;7.842;2023-02-15T19:48:40;18.90;;;15.27;;
928;SDS011;451;47.988;7.842;2023-02-15T19:57:43;13.80;;;11.70;;
928;SDS011;451;47.988;7.842;2023-02-15T20:06:47;14.17;;;12.67;;
928;SDS011;451;47.988;7.842;2023-02-15T20:15:52;14.60;;;11.80;;
928;SDS011;451;47.988;7.842;2023-02-15T20:24:56;13.07;;;11.17;;
928;SDS011;451;47.988;7.842;2023-02-15T20:33:59;13.90;;;12.40;;
928;SDS011;451;47.988;7.842;2023-02-15T20:43:07;16.67;;;13.47;;
928;SDS011;451;47.988;7.842;2023-02-15T20:52:16;17.60;;;13.53;;
928;SDS011;451;47.988;7.842;2023-02-15T21:01:22;22.80;;;15.17;;
928;SDS011;451;47.988;7.842;2023-02-15T21:10:26;26.70;;;16.33;;
928;SDS011;451;47.988;7.842;2023-02-15T21:19:32;18.23;;;15.00;;
928;SDS011;451;47.988;7.842;2023-02-15T21:28:35;11.80;;;10.57;;
928;SDS011;451;47.988;7.842;2023-02-15T21:37:39;11.87;;;10.10;;
928;SDS011;451;47.988;7.842;2023-02-15T21:46:44;12.43;;;10.00;;
928;SDS011;451;47.988;7.842;2023-02-15T21:56:08;10.60;;;9.10;;
928;SDS011;451;47.988;7.842;2023-02-15T22:05:13;12.43;;;9.77;;
928;SDS011;451;47.988;7.842;2023-02-15T22:14:27;13.37;;;9.53;;
928;SDS011;451;47.988;7.842;2023-02-15T22:23:37;11.10;;;9.73;;
928;SDS011;451;47.988;7.842;2023-02-15T22:32:41;10.53;;;8.73;;
928;SDS011;451;47.988;7.842;2023-02-15T22:41:44;9.17;;;8.17;;
928;SDS011;451;47.988;7.842;2023-02-15T22:50:48;11.83;;;9.73;;
928;SDS011;451;47.988;7.842;2023-02-15T22:59:51;10.63;;;9.00;;
928;SDS011;451;47.988;7.842;2023-02-15T23:08:56;11.33;;;7.93;;
928;SDS011;451;47.988;7.842;2023-02-15T23:18:05;7.97;;;7.10;;
928;SDS011;451;47.988;7.842;2023-02-15T23:27:20;6.30;;;5.70;;
928;SDS011;451;47.988;7.842;2023-02-15T23:36:40;6.03;;;5.20;;
928;SDS011;451;47.988;7.842;2023-02-15T23:45:46;6.67;;;5.70;;
928;SDS011;451;47.988;7.842;2023-02-15T23:54:49;5.60;;;5.10;;
